Time;durP1;ratioP1;P1;durP2;ratioP2;P2;SDS_P1;SDS_P2;PMS_P1;PMS_P2;Temp;Humidity;BMP_temperature;BMP_pressure;BME280_temperature;BME280_humidity;BME280_pressure;Samples;Min_cycle;Max_cycle;Signal;HPM_P1;HPM_P2
2021/08/04 00:01:38;;;;;;;;;;;21.50;61.80;;;;;;491847;240;1267;-47
2021/08/04 00:03:39;;;;;;;;;;;21.50;61.60;;;;;;491577;240;1065;-47
2021/08/04 00:05:41;;;;;;;;;;;21.60;61.60;;;;;;492027;240;2149;-47
2021/08/04 00:07:42;;;;;;;;;;;21.60;61.70;;;;;;491893;240;1071;-47
2021/08/04 00:09:43;;;;;;;;;;;21.60;61.70;;;;;;492070;240;1071;-47
2021/08/04 00:11:45;;;;;;;;;;;21.60;61.60;;;;;;491918;240;1391;-47
2021/08/04 00:13:46;;;;;;;;;;;21.60;61.60;;;;;;491513;240;1070;-47
2021/08/04 00:15:47;;;;;;;;;;;21.60;61.60;;;;;;492028;240;1155;-47
2021/08/04 00:17:49;;;;;;;;;;;21.60;61.50;;;;;;491515;240;1255;-47
2021/08/04 00:19:50;;;;;;;;;;;21.60;61.60;;;;;;491512;240;1081;-47
2021/08/04 00:21:51;;;;;;;;;;;21.60;61.60;;;;;;491529;240;1241;-47
2021/08/04 00:23:53;;;;;;;;;;;21.70;61.50;;;;;;491767;240;1066;-47
2021/08/04 00:25:54;;;;;;;;;;;21.60;61.50;;;;;;491988;240;2385;-47
2021/08/04 00:27:55;;;;;;;;;;;21.70;61.50;;;;;;491828;240;1276;-47
2021/08/04 00:29:57;;;;;;;;;;;21.70;62.60;;;;;;491618;240;1054;-47
2021/08/04 00:31:58;;;;;;;;;;;21.50;62.50;;;;;;491610;240;1328;-47
2021/08/04 00:33:59;;;;;;;;;;;21.30;63.40;;;;;;491513;240;1199;-47
2021/08/04 00:36:01;;;;;;;;;;;20.90;64.80;;;;;;491928;240;2712;-47
2021/08/04 00:38:02;;;;;;;;;;;20.60;65.90;;;;;;491968;240;1195;-47
2021/08/04 00:40:03;;;;;;;;;;;20.40;66.60;;;;;;491560;240;1088;-46
2021/08/04 00:42:04;;;;;;;;;;;20.20;67.30;;;;;;491515;240;1360;-47
2021/08/04 00:44:06;;;;;;;;;;;20.10;67.80;;;;;;491746;240;1051;-46
2021/08/04 00:46:07;;;;;;;;;;;20.00;67.90;;;;;;491489;240;2176;-46
2021/08/04 00:48:08;;;;;;;;;;;19.90;68.30;;;;;;491617;240;1236;-47
2021/08/04 00:50:10;;;;;;;;;;;19.80;68.40;;;;;;491631;240;1065;-47
2021/08/04 00:52:11;;;;;;;;;;;19.80;68.50;;;;;;491508;240;1322;-47
2021/08/04 00:54:12;;;;;;;;;;;19.80;68.70;;;;;;491551;240;1043;-46
2021/08/04 00:56:14;;;;;;;;;;;19.70;68.70;;;;;;491820;240;1523;-46
2021/08/04 00:58:15;;;;;;;;;;;19.70;69.00;;;;;;491555;240;1073;-46
2021/08/04 01:00:16;;;;;;;;;;;19.70;68.90;;;;;;491971;240;1055;-46
2021/08/04 01:02:18;;;;;;;;;;;19.60;68.90;;;;;;491497;240;1184;-47
2021/08/04 01:04:19;;;;;;;;;;;19.60;69.10;;;;;;491625;240;1042;-46
2021/08/04 01:06:21;;;;;;;;;;;19.60;69.20;;;;;;491792;240;2183;-47
2021/08/04 01:08:22;;;;;;;;;;;19.60;69.30;;;;;;491786;240;1320;-47
2021/08/04 01:10:23;;;;;;;;;;;19.60;69.20;;;;;;492050;240;1051;-46
2021/08/04 01:12:25;;;;;;;;;;;19.60;69.20;;;;;;491617;240;1462;-46
2021/08/04 01:14:26;;;;;;;;;;;19.50;69.30;;;;;;491956;240;1073;-47
2021/08/04 01:16:27;;;;;;;;;;;19.40;69.30;;;;;;491848;240;1244;-47
2021/08/04 01:18:30;;;;;;;;;;;19.50;69.50;;;;;;491620;240;1180;-46
2021/08/04 01:20:31;;;;;;;;;;;19.50;69.50;;;;;;491911;240;1184;-46
2021/08/04 01:22:32;;;;;;;;;;;19.40;69.50;;;;;;491573;240;1174;-47
2021/08/04 01:24:33;;;;;;;;;;;19.40;69.50;;;;;;491586;240;1181;-46
2021/08/04 01:26:34;;;;;;;;;;;19.40;69.50;;;;;;491508;240;2191;-46
2021/08/04 01:28:36;;;;;;;;;;;19.40;69.50;;;;;;491505;240;1185;-47
2021/08/04 01:30:37;;;;;;;;;;;19.40;69.50;;;;;;491549;240;1049;-47
2021/08/04 01:32:38;;;;;;;;;;;19.40;69.50;;;;;;491531;240;1198;-47
2021/08/04 01:34:40;;;;;;;;;;;19.30;69.50;;;;;;491546;240;1039;-46
2021/08/04 01:36:41;;;;;;;;;;;19.30;69.50;;;;;;491971;240;1437;-46
2021/08/04 01:38:42;;;;;;;;;;;19.30;69.60;;;;;;491723;240;1153;-47
2021/08/04 01:40:44;;;;;;;;;;;19.30;69.80;;;;;;491804;240;1117;-47
2021/08/04 01:42:45;;;;;;;;;;;19.30;69.60;;;;;;491929;240;1206;-46
2021/08/04 01:44:46;;;;;;;;;;;19.30;69.60;;;;;;491934;240;1063;-47
2021/08/04 01:46:48;;;;;;;;;;;19.30;69.60;;;;;;491487;240;2137;-47
2021/08/04 01:48:49;;;;;;;;;;;19.20;69.70;;;;;;491529;240;1141;-46
2021/08/04 01:50:50;;;;;;;;;;;19.20;69.70;;;;;;492003;240;1340;-46
2021/08/04 01:52:52;;;;;;;;;;;19.20;69.70;;;;;;491915;240;1505;-47
2021/08/04 01:54:53;;;;;;;;;;;19.20;69.70;;;;;;491525;240;1037;-46
2021/08/04 01:56:54;;;;;;;;;;;19.20;69.70;;;;;;491435;240;1197;-46
2021/08/04 01:58:56;;;;;;;;;;;19.20;69.70;;;;;;491640;240;1069;-47
2021/08/04 02:00:57;;;;;;;;;;;19.20;69.80;;;;;;491937;240;1233;-46
2021/08/04 02:02:58;;;;;;;;;;;19.20;69.80;;;;;;491547;240;1311;-46
2021/08/04 02:05:00;;;;;;;;;;;19.20;69.80;;;;;;492060;240;1068;-47
2021/08/04 02:07:01;;;;;;;;;;;19.20;69.80;;;;;;491569;240;2125;-46
2021/08/04 02:09:02;;;;;;;;;;;19.20;69.90;;;;;;491441;240;1104;-47
2021/08/04 02:11:04;;;;;;;;;;;19.10;69.90;;;;;;491941;240;1227;-47
2021/08/04 02:13:05;;;;;;;;;;;19.20;69.90;;;;;;491510;240;1235;-47
2021/08/04 02:15:06;;;;;;;;;;;19.20;69.80;;;;;;491644;240;1141;-47
2021/08/04 02:17:07;;;;;;;;;;;19.20;69.80;;;;;;491620;240;1161;-46
2021/08/04 02:19:09;;;;;;;;;;;19.10;69.90;;;;;;491731;240;1228;-46
2021/08/04 02:21:10;;;;;;;;;;;19.10;69.90;;;;;;491982;240;1241;-46
2021/08/04 02:23:12;;;;;;;;;;;19.10;69.90;;;;;;491728;240;1168;-47
2021/08/04 02:25:13;;;;;;;;;;;19.10;70.00;;;;;;491573;240;1077;-46
2021/08/04 02:27:14;;;;;;;;;;;19.10;70.00;;;;;;491917;240;2184;-46
2021/08/04 02:29:16;;;;;;;;;;;19.10;70.00;;;;;;491763;240;1108;-46
2021/08/04 02:31:18;;;;;;;;;;;19.10;69.90;;;;;;491581;240;1099;-46
2021/08/04 02:33:19;;;;;;;;;;;19.10;69.90;;;;;;491474;240;2053;-47
2021/08/04 02:35:20;;;;;;;;;;;19.10;69.80;;;;;;491864;240;1208;-47
2021/08/04 02:37:21;;;;;;;;;;;19.10;69.90;;;;;;491482;240;1267;-47
2021/08/04 02:39:23;;;;;;;;;;;19.00;69.90;;;;;;491501;240;1052;-46
2021/08/04 02:41:24;;;;;;;;;;;19.10;70.00;;;;;;491854;240;1147;-46
2021/08/04 02:43:25;;;;;;;;;;;19.00;70.00;;;;;;491599;240;1126;-47
2021/08/04 02:45:26;;;;;;;;;;;19.00;70.00;;;;;;491576;240;1062;-47
2021/08/04 02:47:28;;;;;;;;;;;19.00;70.00;;;;;;491516;240;2187;-46
2021/08/04 02:49:29;;;;;;;;;;;19.00;70.00;;;;;;491679;240;1167;-46
2021/08/04 02:51:31;;;;;;;;;;;19.00;70.00;;;;;;491528;240;1396;-47
2021/08/04 02:53:32;;;;;;;;;;;19.00;70.00;;;;;;492028;240;1228;-46
2021/08/04 02:55:34;;;;;;;;;;;19.00;70.00;;;;;;491970;240;1071;-46
2021/08/04 02:57:35;;;;;;;;;;;19.00;70.00;;;;;;491470;240;1102;-46
2021/08/04 02:59:36;;;;;;;;;;;19.00;70.10;;;;;;491642;240;1119;-47
2021/08/04 03:01:38;;;;;;;;;;;19.00;70.10;;;;;;491679;240;1210;-47
2021/08/04 03:03:39;;;;;;;;;;;19.00;70.10;;;;;;491716;240;1156;-46
2021/08/04 03:05:40;;;;;;;;;;;19.00;70.10;;;;;;491567;240;1015;-46
2021/08/04 03:07:41;;;;;;;;;;;19.00;70.10;;;;;;491556;240;2152;-47
2021/08/04 03:09:43;;;;;;;;;;;19.00;70.10;;;;;;491624;240;1071;-47
2021/08/04 03:11:44;;;;;;;;;;;18.90;70.00;;;;;;491591;240;1181;-46
2021/08/04 03:13:45;;;;;;;;;;;19.00;70.10;;;;;;492100;240;962;-46
2021/08/04 03:15:47;;;;;;;;;;;18.90;70.00;;;;;;491785;240;1702;-47
2021/08/04 03:17:48;;;;;;;;;;;18.90;70.10;;;;;;491553;240;1054;-46
2021/08/04 03:19:49;;;;;;;;;;;18.90;70.10;;;;;;491655;240;1157;-47
2021/08/04 03:21:51;;;;;;;;;;;19.00;70.10;;;;;;491491;240;1224;-46
2021/08/04 03:23:52;;;;;;;;;;;19.00;70.10;;;;;;491619;240;978;-47
2021/08/04 03:25:53;;;;;;;;;;;18.90;70.00;;;;;;491792;240;1143;-46
2021/08/04 03:27:55;;;;;;;;;;;18.90;70.10;;;;;;491437;240;2130;-47
2021/08/04 03:29:56;;;;;;;;;;;18.90;70.10;;;;;;492047;240;1218;-47
2021/08/04 03:31:57;;;;;;;;;;;18.90;70.10;;;;;;491464;240;1192;-47
2021/08/04 03:33:59;;;;;;;;;;;18.90;70.20;;;;;;491521;240;1142;-46
2021/08/04 03:36:00;;;;;;;;;;;18.90;70.10;;;;;;491535;240;1355;-46
2021/08/04 03:38:01;;;;;;;;;;;18.90;70.10;;;;;;491815;240;1078;-47
2021/08/04 03:40:03;;;;;;;;;;;18.90;70.00;;;;;;491702;240;1326;-46
2021/08/04 03:42:04;;;;;;;;;;;18.90;69.90;;;;;;491584;240;1233;-47
2021/08/04 03:44:05;;;;;;;;;;;18.90;70.00;;;;;;491567;240;1070;-46
2021/08/04 03:46:06;;;;;;;;;;;18.90;70.00;;;;;;491878;240;2152;-47
2021/08/04 03:48:08;;;;;;;;;;;18.90;70.10;;;;;;492015;240;1297;-47
2021/08/04 03:50:09;;;;;;;;;;;18.90;70.20;;;;;;491761;240;1120;-47
2021/08/04 03:52:10;;;;;;;;;;;18.90;70.10;;;;;;491800;240;1446;-47
2021/08/04 03:54:12;;;;;;;;;;;18.90;70.10;;;;;;491817;240;1051;-46
2021/08/04 03:56:13;;;;;;;;;;;18.90;70.10;;;;;;491518;240;1179;-46
2021/08/04 03:58:14;;;;;;;;;;;18.90;70.10;;;;;;491646;240;1239;-47
2021/08/04 04:00:16;;;;;;;;;;;18.90;70.10;;;;;;491895;240;1203;-46
2021/08/04 04:02:17;;;;;;;;;;;18.90;70.00;;;;;;491556;240;1231;-47
2021/08/04 04:04:18;;;;;;;;;;;18.90;70.00;;;;;;491658;240;1142;-46
2021/08/04 04:06:20;;;;;;;;;;;18.90;70.00;;;;;;491693;240;2191;-46
2021/08/04 04:08:21;;;;;;;;;;;18.90;70.00;;;;;;491484;240;1217;-46
2021/08/04 04:10:22;;;;;;;;;;;18.90;70.10;;;;;;491714;240;1366;-46
2021/08/04 04:12:24;;;;;;;;;;;18.90;70.20;;;;;;491463;240;1223;-46
2021/08/04 04:14:25;;;;;;;;;;;18.90;70.20;;;;;;491509;240;1283;-47
2021/08/04 04:16:26;;;;;;;;;;;18.90;70.10;;;;;;491734;240;1410;-46
2021/08/04 04:18:28;;;;;;;;;;;18.90;70.10;;;;;;491989;240;1207;-47
2021/08/04 04:20:29;;;;;;;;;;;18.90;70.20;;;;;;491561;240;1221;-46
2021/08/04 04:22:30;;;;;;;;;;;18.90;70.20;;;;;;491472;240;1285;-46
2021/08/04 04:24:32;;;;;;;;;;;18.90;70.20;;;;;;491513;240;1056;-46
2021/08/04 04:26:33;;;;;;;;;;;18.90;70.10;;;;;;491555;240;2183;-46
2021/08/04 04:28:34;;;;;;;;;;;18.90;70.10;;;;;;491460;240;1174;-46
2021/08/04 04:30:36;;;;;;;;;;;18.80;70.10;;;;;;491489;240;1211;-46
2021/08/04 04:32:37;;;;;;;;;;;18.80;70.10;;;;;;491449;240;1188;-47
2021/08/04 04:34:38;;;;;;;;;;;18.90;70.20;;;;;;491451;240;1167;-46
2021/08/04 04:36:39;;;;;;;;;;;18.90;70.20;;;;;;491390;240;1389;-47
2021/08/04 04:38:41;;;;;;;;;;;18.80;70.10;;;;;;491342;240;1142;-46
2021/08/04 04:40:42;;;;;;;;;;;18.90;70.10;;;;;;491897;240;1105;-47
2021/08/04 04:42:43;;;;;;;;;;;18.90;70.10;;;;;;491646;240;1208;-46
2021/08/04 04:44:45;;;;;;;;;;;18.80;70.20;;;;;;491432;240;1047;-47
2021/08/04 04:46:46;;;;;;;;;;;18.80;70.30;;;;;;491534;240;2188;-46
2021/08/04 04:48:47;;;;;;;;;;;18.80;70.20;;;;;;491445;240;1061;-46
2021/08/04 04:50:49;;;;;;;;;;;18.80;70.20;;;;;;491444;240;1189;-47
2021/08/04 04:52:50;;;;;;;;;;;18.80;70.20;;;;;;491333;240;1438;-47
2021/08/04 04:54:51;;;;;;;;;;;18.80;70.30;;;;;;491337;240;1132;-46
2021/08/04 04:56:53;;;;;;;;;;;18.80;70.20;;;;;;491595;240;1208;-46
2021/08/04 04:58:54;;;;;;;;;;;18.80;70.30;;;;;;491532;240;1096;-46
2021/08/04 05:00:56;;;;;;;;;;;18.80;70.30;;;;;;491695;240;1219;-46
2021/08/04 05:02:57;;;;;;;;;;;18.80;70.30;;;;;;491335;240;1260;-46
2021/08/04 05:04:58;;;;;;;;;;;18.80;70.20;;;;;;491456;240;1165;-47
2021/08/04 05:07:00;;;;;;;;;;;18.80;70.20;;;;;;491374;240;2197;-47
2021/08/04 05:09:02;;;;;;;;;;;18.80;70.20;;;;;;491412;240;1183;-47
2021/08/04 05:11:02;;;;;;;;;;;18.80;70.20;;;;;;491403;240;2263;-47
2021/08/04 05:13:04;;;;;;;;;;;18.80;70.10;;;;;;491566;240;1164;-47
2021/08/04 05:15:05;;;;;;;;;;;18.80;70.20;;;;;;491218;240;1131;-46
2021/08/04 05:17:06;;;;;;;;;;;18.80;70.30;;;;;;491322;240;1202;-47
2021/08/04 05:19:08;;;;;;;;;;;18.80;70.30;;;;;;491307;240;1096;-47
2021/08/04 05:21:09;;;;;;;;;;;18.80;70.30;;;;;;491223;240;1362;-47
2021/08/04 05:23:10;;;;;;;;;;;18.80;70.40;;;;;;491293;240;1126;-47
2021/08/04 05:25:12;;;;;;;;;;;18.80;70.40;;;;;;491414;240;1171;-47
2021/08/04 05:27:13;;;;;;;;;;;18.80;70.30;;;;;;491228;240;2147;-46
2021/08/04 05:29:14;;;;;;;;;;;18.80;70.30;;;;;;491242;240;1120;-46
2021/08/04 05:31:16;;;;;;;;;;;18.80;70.30;;;;;;491240;240;1229;-47
2021/08/04 05:33:17;;;;;;;;;;;18.80;70.30;;;;;;491443;240;1113;-46
2021/08/04 05:35:18;;;;;;;;;;;18.80;70.30;;;;;;491290;240;1298;-47
2021/08/04 05:37:20;;;;;;;;;;;18.80;70.30;;;;;;491328;240;1175;-46
2021/08/04 05:39:21;;;;;;;;;;;18.80;70.30;;;;;;491103;240;1429;-47
2021/08/04 05:41:22;;;;;;;;;;;18.80;70.30;;;;;;491164;240;1214;-47
2021/08/04 05:43:24;;;;;;;;;;;18.80;70.30;;;;;;491586;240;1163;-46
2021/08/04 05:45:25;;;;;;;;;;;18.80;70.30;;;;;;491337;240;1110;-46
2021/08/04 05:47:26;;;;;;;;;;;18.80;70.30;;;;;;491095;240;2192;-47
2021/08/04 05:49:28;;;;;;;;;;;18.80;70.40;;;;;;491096;240;1110;-46
2021/08/04 05:51:29;;;;;;;;;;;18.80;70.40;;;;;;491281;240;1269;-46
2021/08/04 05:53:30;;;;;;;;;;;18.80;70.30;;;;;;491207;240;1185;-46
2021/08/04 05:55:33;;;;;;;;;;;18.80;70.30;;;;;;491218;240;1075;-47
2021/08/04 05:57:33;;;;;;;;;;;18.80;70.30;;;;;;491304;240;2161;-46
2021/08/04 05:59:34;;;;;;;;;;;18.80;70.30;;;;;;491289;240;1165;-46
2021/08/04 06:01:35;;;;;;;;;;;18.80;70.30;;;;;;491188;240;1076;-46
2021/08/04 06:03:37;;;;;;;;;;;18.80;70.40;;;;;;491202;240;1100;-46
2021/08/04 06:05:38;;;;;;;;;;;18.70;70.40;;;;;;491161;240;1196;-46
2021/08/04 06:07:39;;;;;;;;;;;18.70;70.40;;;;;;491046;240;2204;-46
2021/08/04 06:09:41;;;;;;;;;;;18.80;70.50;;;;;;491305;240;1091;-45
2021/08/04 06:11:42;;;;;;;;;;;18.70;70.30;;;;;;491087;240;1330;-46
2021/08/04 06:13:43;;;;;;;;;;;18.70;70.40;;;;;;491161;240;1114;-46
2021/08/04 06:15:45;;;;;;;;;;;18.80;70.40;;;;;;491265;240;1226;-46
2021/08/04 06:17:46;;;;;;;;;;;18.70;70.40;;;;;;491145;240;1258;-47
2021/08/04 06:19:47;;;;;;;;;;;18.70;70.40;;;;;;491125;240;1143;-47
2021/08/04 06:21:49;;;;;;;;;;;18.70;70.50;;;;;;491179;240;1234;-46
2021/08/04 06:23:50;;;;;;;;;;;18.70;70.50;;;;;;491257;240;1124;-46
2021/08/04 06:25:51;;;;;;;;;;;18.70;70.40;;;;;;491161;240;1299;-47
2021/08/04 06:27:54;;;;;;;;;;;18.70;70.40;;;;;;491136;240;2199;-46
2021/08/04 06:29:54;;;;;;;;;;;18.70;70.50;;;;;;491220;240;1476;-47
2021/08/04 06:31:55;;;;;;;;;;;18.70;70.50;;;;;;491046;240;1274;-46
2021/08/04 06:33:57;;;;;;;;;;;18.70;70.50;;;;;;491127;240;1310;-46
2021/08/04 06:35:58;;;;;;;;;;;18.70;70.40;;;;;;490919;240;1513;-46
2021/08/04 06:37:59;;;;;;;;;;;18.70;70.30;;;;;;491098;240;1119;-47
2021/08/04 06:40:01;;;;;;;;;;;18.80;70.40;;;;;;490996;240;1345;-47
2021/08/04 06:42:03;;;;;;;;;;;19.10;69.30;;;;;;490991;240;1081;-46
2021/08/04 06:44:04;;;;;;;;;;;19.40;68.10;;;;;;491167;240;1193;-47
2021/08/04 06:46:05;;;;;;;;;;;19.60;67.20;;;;;;490906;240;1359;-47
2021/08/04 06:48:06;;;;;;;;;;;19.80;66.50;;;;;;491176;240;2192;-46
2021/08/04 06:50:08;;;;;;;;;;;20.00;66.00;;;;;;491171;240;1059;-47
2021/08/04 06:52:09;;;;;;;;;;;20.10;65.60;;;;;;490937;240;1267;-47
2021/08/04 06:54:10;;;;;;;;;;;20.10;65.30;;;;;;490857;240;1085;-47
2021/08/04 06:56:12;;;;;;;;;;;20.20;65.10;;;;;;490719;240;1109;-47
2021/08/04 06:58:13;;;;;;;;;;;20.30;64.80;;;;;;490972;240;1175;-47
2021/08/04 07:00:14;;;;;;;;;;;20.30;64.70;;;;;;490961;240;1240;-47
2021/08/04 07:02:16;;;;;;;;;;;20.40;64.40;;;;;;490862;240;1201;-47
2021/08/04 07:04:17;;;;;;;;;;;20.50;64.10;;;;;;490758;240;1083;-47
2021/08/04 07:06:18;;;;;;;;;;;20.50;63.90;;;;;;490737;240;1280;-47
2021/08/04 07:08:20;;;;;;;;;;;20.60;63.60;;;;;;490995;240;2141;-47
2021/08/04 07:10:21;;;;;;;;;;;20.70;63.30;;;;;;490899;240;1152;-47
2021/08/04 07:12:22;;;;;;;;;;;20.70;63.30;;;;;;490851;240;1175;-47
2021/08/04 07:14:24;;;;;;;;;;;20.70;63.30;;;;;;490833;240;1232;-47
2021/08/04 07:16:25;;;;;;;;;;;20.80;63.20;;;;;;490849;240;1300;-47
2021/08/04 07:18:26;;;;;;;;;;;20.80;63.20;;;;;;490640;240;1093;-46
2021/08/04 07:20:28;;;;;;;;;;;20.80;63.10;;;;;;490739;240;1083;-46
2021/08/04 07:22:29;;;;;;;;;;;20.80;63.00;;;;;;490878;240;1217;-47
2021/08/04 07:24:30;;;;;;;;;;;20.80;63.00;;;;;;490822;240;1094;-46
2021/08/04 07:26:32;;;;;;;;;;;20.90;62.80;;;;;;490643;240;1270;-47
2021/08/04 07:28:33;;;;;;;;;;;20.90;62.70;;;;;;490704;240;2149;-46
2021/08/04 07:30:34;;;;;;;;;;;20.90;62.70;;;;;;490663;240;1311;-47
2021/08/04 07:32:36;;;;;;;;;;;21.00;62.70;;;;;;490863;240;1336;-47
2021/08/04 07:34:37;;;;;;;;;;;21.00;62.50;;;;;;490869;240;1105;-47
2021/08/04 07:36:38;;;;;;;;;;;21.10;62.40;;;;;;490780;240;1323;-46
2021/08/04 07:38:40;;;;;;;;;;;21.10;62.30;;;;;;490840;240;1339;-47
2021/08/04 07:40:42;;;;;;;;;;;21.10;62.20;;;;;;490680;240;1091;-47
2021/08/04 07:42:43;;;;;;;;;;;21.10;62.10;;;;;;490899;240;1372;-47
2021/08/04 07:44:44;;;;;;;;;;;21.10;62.10;;;;;;490790;240;1140;-47
2021/08/04 07:46:46;;;;;;;;;;;21.10;62.10;;;;;;490809;240;1403;-46
2021/08/04 07:48:47;;;;;;;;;;;21.20;62.10;;;;;;490764;240;2195;-47
2021/08/04 07:50:48;;;;;;;;;;;21.20;62.00;;;;;;490778;240;1213;-47
2021/08/04 07:52:50;;;;;;;;;;;21.20;62.00;;;;;;490647;240;1218;-47
2021/08/04 07:54:51;;;;;;;;;;;21.30;61.90;;;;;;490708;241;1094;-47
2021/08/04 07:56:52;;;;;;;;;;;21.30;61.80;;;;;;490551;240;1528;-46
2021/08/04 07:58:53;;;;;;;;;;;21.30;61.90;;;;;;490651;240;1143;-46
2021/08/04 08:00:55;;;;;;;;;;;21.30;61.80;;;;;;490721;240;1408;-47
2021/08/04 08:02:57;;;;;;;;;;;21.30;61.80;;;;;;490720;240;1164;-47
2021/08/04 08:04:58;;;;;;;;;;;21.40;61.80;;;;;;490729;240;1377;-47
2021/08/04 08:06:59;;;;;;;;;;;21.40;61.70;;;;;;490884;240;1145;-47
2021/08/04 08:09:00;;;;;;;;;;;21.40;61.70;;;;;;490827;240;2188;-47
2021/08/04 08:11:04;;;;;;;;;;;21.40;61.80;;;;;;490856;240;1114;-47
2021/08/04 08:13:03;;;;;;;;;;;21.40;61.80;;;;;;491020;240;2191;-47
2021/08/04 08:15:04;;;;;;;;;;;21.40;61.70;;;;;;490929;240;1407;-47
2021/08/04 08:17:06;;;;;;;;;;;21.40;61.70;;;;;;490815;240;1102;-47
2021/08/04 08:19:07;;;;;;;;;;;21.40;61.60;;;;;;490619;240;1092;-47
2021/08/04 08:21:09;;;;;;;;;;;21.40;61.50;;;;;;490613;240;1111;-47
2021/08/04 08:23:10;;;;;;;;;;;21.50;61.50;;;;;;490562;240;1263;-47
2021/08/04 08:25:13;;;;;;;;;;;21.50;61.40;;;;;;490641;240;1169;-47
2021/08/04 08:27:14;;;;;;;;;;;21.50;61.40;;;;;;491226;242;2058;-47
2021/08/04 08:29:15;;;;;;;;;;;21.50;61.50;;;;;;490520;240;2153;-46
2021/08/04 08:31:16;;;;;;;;;;;21.50;61.50;;;;;;490379;240;1265;-47
2021/08/04 08:33:17;;;;;;;;;;;21.50;61.60;;;;;;490947;240;1082;-47
2021/08/04 08:35:19;;;;;;;;;;;21.50;61.40;;;;;;491435;240;1219;-47
2021/08/04 08:37:21;;;;;;;;;;;21.50;61.40;;;;;;490894;240;1305;-47
2021/08/04 08:39:22;;;;;;;;;;;21.50;61.50;;;;;;490809;240;1097;-47
2021/08/04 08:41:23;;;;;;;;;;;21.60;61.50;;;;;;490662;240;1301;-47
2021/08/04 08:43:24;;;;;;;;;;;21.50;61.40;;;;;;490665;240;1334;-47
2021/08/04 08:45:26;;;;;;;;;;;21.60;61.40;;;;;;490979;240;902;-47
2021/08/04 08:47:27;;;;;;;;;;;21.60;61.40;;;;;;490961;240;1106;-47
2021/08/04 08:49:28;;;;;;;;;;;21.60;61.30;;;;;;490613;240;2199;-47
2021/08/04 08:51:30;;;;;;;;;;;21.60;61.30;;;;;;490617;240;1394;-47
2021/08/04 08:53:32;;;;;;;;;;;21.60;61.30;;;;;;490605;240;1368;-47
2021/08/04 08:55:32;;;;;;;;;;;21.70;61.10;;;;;;490735;240;1459;-46
2021/08/04 08:57:34;;;;;;;;;;;21.70;61.20;;;;;;490558;240;1265;-47
2021/08/04 08:59:35;;;;;;;;;;;21.70;61.10;;;;;;490433;240;1092;-47
2021/08/04 09:01:37;;;;;;;;;;;21.70;61.10;;;;;;490567;240;1318;-47
2021/08/04 09:03:38;;;;;;;;;;;21.80;61.20;;;;;;490912;240;1097;-47
2021/08/04 09:05:39;;;;;;;;;;;21.70;61.10;;;;;;491377;240;1217;-47
2021/08/04 09:07:40;;;;;;;;;;;21.80;61.10;;;;;;490847;240;1345;-47
2021/08/04 09:09:42;;;;;;;;;;;21.80;61.10;;;;;;491392;240;2196;-46
2021/08/04 09:11:43;;;;;;;;;;;21.80;60.90;;;;;;490718;240;1367;-47
2021/08/04 09:13:45;;;;;;;;;;;21.80;61.00;;;;;;491384;240;1131;-47
2021/08/04 09:15:46;;;;;;;;;;;21.70;61.30;;;;;;491385;240;2190;-47
2021/08/04 09:17:47;;;;;;;;;;;21.80;62.10;;;;;;491340;240;1123;-47
2021/08/04 09:19:48;;;;;;;;;;;21.60;62.30;;;;;;490749;240;1089;-46
2021/08/04 09:21:49;;;;;;;;;;;21.30;63.40;;;;;;490502;240;1347;-47
2021/08/04 09:23:51;;;;;;;;;;;20.80;64.80;;;;;;491279;240;1136;-46
2021/08/04 09:25:52;;;;;;;;;;;20.60;65.80;;;;;;491499;240;1375;-46
2021/08/04 09:27:53;;;;;;;;;;;20.30;66.60;;;;;;490367;240;1339;-46
2021/08/04 09:29:55;;;;;;;;;;;20.20;67.20;;;;;;490459;240;2203;-46
2021/08/04 09:31:56;;;;;;;;;;;20.10;67.60;;;;;;490371;240;1377;-47
2021/08/04 09:33:57;;;;;;;;;;;20.00;67.80;;;;;;490488;240;1298;-46
2021/08/04 09:35:59;;;;;;;;;;;20.00;68.10;;;;;;490580;240;1370;-47
2021/08/04 09:38:00;;;;;;;;;;;19.90;68.40;;;;;;490591;240;1285;-47
2021/08/04 09:40:02;;;;;;;;;;;19.80;68.50;;;;;;491414;240;855;-47
2021/08/04 09:42:03;;;;;;;;;;;19.80;68.60;;;;;;491430;240;1169;-47
2021/08/04 09:44:04;;;;;;;;;;;19.70;68.70;;;;;;491444;240;1044;-46
2021/08/04 09:46:05;;;;;;;;;;;19.70;68.90;;;;;;490919;240;1204;-47
2021/08/04 09:48:08;;;;;;;;;;;19.70;68.90;;;;;;490922;240;1164;-47
2021/08/04 09:50:09;;;;;;;;;;;19.60;68.90;;;;;;490953;240;2298;-46
2021/08/04 09:52:10;;;;;;;;;;;19.60;69.00;;;;;;491097;240;1311;-47
2021/08/04 09:54:12;;;;;;;;;;;19.60;69.10;;;;;;491128;240;1180;-47
2021/08/04 09:56:13;;;;;;;;;;;19.60;69.10;;;;;;490977;240;1120;-47
2021/08/04 09:58:14;;;;;;;;;;;19.60;69.00;;;;;;491036;240;1051;-46
2021/08/04 10:00:16;;;;;;;;;;;19.60;69.10;;;;;;490730;240;1412;-46
2021/08/04 10:02:17;;;;;;;;;;;19.50;69.10;;;;;;490693;240;1197;-47
2021/08/04 10:04:18;;;;;;;;;;;19.50;69.20;;;;;;491041;240;878;-47
2021/08/04 10:06:19;;;;;;;;;;;19.40;69.30;;;;;;491474;240;1233;-46
2021/08/04 10:08:21;;;;;;;;;;;19.40;69.50;;;;;;490969;240;2193;-46
2021/08/04 10:10:22;;;;;;;;;;;19.40;69.50;;;;;;490981;240;1196;-46
2021/08/04 10:12:23;;;;;;;;;;;19.40;69.50;;;;;;490993;240;1053;-47
2021/08/04 10:14:25;;;;;;;;;;;19.40;69.50;;;;;;490697;240;1242;-47
2021/08/04 10:16:26;;;;;;;;;;;19.40;69.50;;;;;;491381;240;1107;-47
2021/08/04 10:18:29;;;;;;;;;;;19.30;69.50;;;;;;490926;240;1058;-47
2021/08/04 10:20:29;;;;;;;;;;;19.30;69.60;;;;;;490629;240;1484;-46
2021/08/04 10:22:30;;;;;;;;;;;19.30;69.70;;;;;;490705;240;1131;-47
2021/08/04 10:24:31;;;;;;;;;;;19.30;69.60;;;;;;490704;240;1282;-46
2021/08/04 10:26:33;;;;;;;;;;;19.30;69.70;;;;;;490543;240;1280;-47
2021/08/04 10:28:34;;;;;;;;;;;19.30;69.80;;;;;;490457;240;2200;-47
2021/08/04 10:30:35;;;;;;;;;;;19.30;69.80;;;;;;490305;240;1229;-47
2021/08/04 10:32:37;;;;;;;;;;;19.20;69.70;;;;;;491185;240;1126;-46
2021/08/04 10:34:38;;;;;;;;;;;19.20;69.80;;;;;;491379;240;885;-46
2021/08/04 10:36:39;;;;;;;;;;;19.20;69.90;;;;;;490879;240;1045;-46
2021/08/04 10:38:41;;;;;;;;;;;19.20;69.80;;;;;;491192;240;1133;-47
2021/08/04 10:40:42;;;;;;;;;;;19.20;69.90;;;;;;491309;240;1324;-46
2021/08/04 10:42:43;;;;;;;;;;;19.20;69.80;;;;;;491147;240;1080;-47
2021/08/04 10:44:46;;;;;;;;;;;19.20;69.80;;;;;;491278;240;1342;-46
2021/08/04 10:46:46;;;;;;;;;;;19.20;69.80;;;;;;491249;240;1422;-46
2021/08/04 10:48:47;;;;;;;;;;;19.20;69.90;;;;;;491304;240;2180;-47
2021/08/04 10:50:48;;;;;;;;;;;19.20;69.90;;;;;;490835;240;1183;-47
2021/08/04 10:52:50;;;;;;;;;;;19.10;69.90;;;;;;491241;240;1089;-46
2021/08/04 10:54:51;;;;;;;;;;;19.10;69.90;;;;;;491060;240;1062;-46
2021/08/04 10:56:52;;;;;;;;;;;19.10;70.00;;;;;;490812;240;1160;-46
2021/08/04 10:58:54;;;;;;;;;;;19.10;70.00;;;;;;491302;240;1041;-47
2021/08/04 11:00:58;;;;;;;;;;;19.10;70.00;;;;;;491397;240;1282;-47
2021/08/04 11:02:56;;;;;;;;;;;19.10;70.00;;;;;;491014;240;2370;-47
2021/08/04 11:04:58;;;;;;;;;;;19.10;69.90;;;;;;491297;240;1087;-47
2021/08/04 11:06:59;;;;;;;;;;;19.10;69.80;;;;;;490626;240;1274;-47
2021/08/04 11:09:00;;;;;;;;;;;19.10;70.00;;;;;;490768;240;2191;-47
2021/08/04 11:11:02;;;;;;;;;;;19.10;70.10;;;;;;490898;240;1188;-47
2021/08/04 11:13:03;;;;;;;;;;;19.00;70.00;;;;;;491605;240;1033;-46
2021/08/04 11:15:04;;;;;;;;;;;19.00;69.90;;;;;;491176;240;881;-46
2021/08/04 11:17:06;;;;;;;;;;;19.00;69.90;;;;;;491066;240;989;-46
2021/08/04 11:19:07;;;;;;;;;;;19.10;69.90;;;;;;491036;240;961;-46
2021/08/04 11:21:08;;;;;;;;;;;19.10;70.00;;;;;;491314;240;1139;-47
2021/08/04 11:23:10;;;;;;;;;;;19.00;70.10;;;;;;490549;240;1369;-46
2021/08/04 11:25:11;;;;;;;;;;;19.00;70.00;;;;;;490624;240;1249;-46
2021/08/04 11:27:12;;;;;;;;;;;19.00;70.00;;;;;;490793;240;1143;-47
2021/08/04 11:29:14;;;;;;;;;;;19.00;70.10;;;;;;490959;240;2200;-46
2021/08/04 11:31:16;;;;;;;;;;;19.00;70.10;;;;;;490990;240;1103;-46
2021/08/04 11:33:16;;;;;;;;;;;19.00;70.10;;;;;;491446;240;1706;-47
2021/08/04 11:35:17;;;;;;;;;;;19.00;70.10;;;;;;491097;240;1231;-46
2021/08/04 11:37:19;;;;;;;;;;;19.00;70.00;;;;;;491080;240;1062;-47
2021/08/04 11:39:20;;;;;;;;;;;19.00;70.10;;;;;;491073;240;1105;-46
2021/08/04 11:41:21;;;;;;;;;;;19.00;70.20;;;;;;491026;240;1191;-46
2021/08/04 11:43:23;;;;;;;;;;;19.00;70.10;;;;;;491514;240;861;-47
2021/08/04 11:45:24;;;;;;;;;;;19.00;70.10;;;;;;491302;240;1055;-46
2021/08/04 11:47:25;;;;;;;;;;;19.00;70.10;;;;;;491053;240;958;-47
2021/08/04 11:49:27;;;;;;;;;;;19.00;70.10;;;;;;490800;240;2187;-46
2021/08/04 11:51:28;;;;;;;;;;;19.00;70.10;;;;;;490852;240;1351;-47
2021/08/04 11:53:29;;;;;;;;;;;19.00;70.10;;;;;;490760;240;1110;-47
2021/08/04 11:55:31;;;;;;;;;;;18.90;70.20;;;;;;490729;240;1182;-46
2021/08/04 11:57:32;;;;;;;;;;;18.90;70.20;;;;;;490642;240;1257;-46